Monticello, MN (55362)

5:14 PM CDT on May 29, 2015 (GMT -0500)
KMNMONTI2 | Change Station
CLOSE
Current Station
Personal Weather Station
Location: Monticello, MN
Elevation: 971 ft
Nearby Weather Stations

Elev 971 ft 45.29 °N, 93.77 °W | Updated 15 seconds ago

Rain
Rain
58.2 °F
Feels Like 58.2 °F
N
0.0
Wind Variable Wind from South
Gusts 7.0 mph

Today
High -- | Low -- °F
--% Chance of Precip.
Yesterday
High -- | Low -- °F
Precip. -- in
5:32 AM 8:52 PM
Waxing Gibbous, 86% visible
Pressure 29.95 in
Visibility 10.0 miles
Clouds Scattered Clouds 1200 ft
Overcast 2100 ft
Dew Point 33 °F
Humidity 39%
Rainfall 0.43 in
Snow Depth Not available.
UV 2 out of 12
Pollen .90 out of 12
Ozone Good
PM2.5 Good
Flu Activity Sporadic
METAR KCFE 292155Z AUTO 35009G16KT 10SM RA SCT012 OVC021 16/14 A2995 RMK AO2 P0003 T01620142

More Conditions Fewer Conditions

Pressure 29.95 in
Visibility 10.0 miles
Clouds Scattered Clouds 1200 ft
Overcast 2100 ft
Dew Point 33 °F
Humidity 39%
Rainfall 0.43 in
Snow Depth Not available.
UV 2 out of 12
Pollen .90 out of 12
Ozone Good
PM2.5 Good
Flu Activity Sporadic
METAR KCFE 292155Z AUTO 35009G16KT 10SM RA SCT012 OVC021 16/14 A2995 RMK AO2 P0003 T01620142

More Conditions Fewer Conditions

10-Day Weather Forecast

Almanac

Astronomy

May. 29, 2015 Rise Set
Actual Time 5:32 AM CDT 8:52 PM CDT
Civil Twilight 4:56 AM CDT 9:29 PM CDT
Nautical Twilight 4:09 AM CDT 10:16 PM CDT
Astronomical Twilight 3:09 AM CDT 11:16 PM CDT
Moon 4:51 PM CDT 3:28 AM CDT
Length of Visible Light 16h 32m
Length of Day
15h 20m
Tomorrow will be 1m 34s longer.
Waxing Gibbous, 86% of the Moon is Illuminated
Today
Waxing Gibbous
Jun 2
Full
Jun 9
Last Quarter
Jun 16
New
Jun 24
First Quarter

Today's Extremes

State Highs State Lows

Community

WunderPhotos

Upload Photos

1,825,379 photos uploaded!

Nearby

Air Quality

  Air Quality AQ Index Pollutant
Yesterday Moderate
OZONE
Yesterday Moderate
PM2.5
Current Good
OZONE
Current Good
PM2.5
Friday Good
PM2.5
Friday Good
OZONE
Saturday Good
OZONE
Saturday Good
PM2.5
Sunday Good
PM2.5
Sunday Good
OZONE
Monday Moderate
PM2.5
Monday Good
OZONE
Tuesday Moderate
OZONE
Tuesday Moderate
PM2.5
Wednesday Moderate
OZONE
Wednesday Moderate
PM2.5

Snow Depth

Station Depth Elevation
No new snow has been reported.

Earthquake Activity

City Distance Mag. Time & Date
No recent earthquake activity has been reported nearby.
Minimum magnitude displayed is 2.5.

Coastal Water Temperatures

Place Temperature
No Stations Reporting

Nearby Weather Stations